sensor_id;sensor_type;location;lat;lon;timestamp;temperature;humidity
7694;DHT22;3889;48.162;11.510;2022-08-19T00:01:51;18.40;99.90
7694;DHT22;3889;48.162;11.510;2022-08-19T00:04:21;18.30;99.90
7694;DHT22;3889;48.162;11.510;2022-08-19T00:06:50;18.30;99.90
7694;DHT22;3889;48.162;11.510;2022-08-19T00:09:20;18.30;99.90
7694;DHT22;3889;48.162;11.510;2022-08-19T00:11:49;18.40;99.90
7694;DHT22;3889;48.162;11.510;2022-08-19T00:14:18;18.40;99.90
7694;DHT22;3889;48.162;11.510;2022-08-19T00:16:49;18.40;99.90
7694;DHT22;3889;48.162;11.510;2022-08-19T00:19:21;18.40;99.90
7694;DHT22;3889;48.162;11.510;2022-08-19T00:21:50;18.40;99.90
7694;DHT22;3889;48.162;11.510;2022-08-19T00:24:18;18.40;99.90
7694;DHT22;3889;48.162;11.510;2022-08-19T00:26:46;18.40;99.90
7694;DHT22;3889;48.162;11.510;2022-08-19T00:29:18;18.40;99.90
7694;DHT22;3889;48.162;11.510;2022-08-19T00:31:46;18.40;99.90
7694;DHT22;3889;48.162;11.510;2022-08-19T00:34:17;18.50;99.90
7694;DHT22;3889;48.162;11.510;2022-08-19T00:36:45;18.40;99.90
7694;DHT22;3889;48.162;11.510;2022-08-19T00:39:14;18.30;99.90
7694;DHT22;3889;48.162;11.510;2022-08-19T00:41:44;18.50;99.90
7694;DHT22;3889;48.162;11.510;2022-08-19T00:44:18;18.50;99.90
7694;DHT22;3889;48.162;11.510;2022-08-19T00:46:49;18.50;99.90
7694;DHT22;3889;48.162;11.510;2022-08-19T00:49:29;18.50;99.90
7694;DHT22;3889;48.162;11.510;2022-08-19T00:52:01;18.40;99.90
7694;DHT22;3889;48.162;11.510;2022-08-19T00:54:30;18.40;99.90
7694;DHT22;3889;48.162;11.510;2022-08-19T00:57:00;18.50;99.90
7694;DHT22;3889;48.162;11.510;2022-08-19T00:59:29;18.50;99.90
7694;DHT22;3889;48.162;11.510;2022-08-19T01:02:17;18.50;99.90
7694;DHT22;3889;48.162;11.510;2022-08-19T01:04:48;18.50;99.90
7694;DHT22;3889;48.162;11.510;2022-08-19T01:07:16;18.40;99.90
7694;DHT22;3889;48.162;11.510;2022-08-19T01:09:46;18.40;99.90
7694;DHT22;3889;48.162;11.510;2022-08-19T01:12:14;18.30;99.90
7694;DHT22;3889;48.162;11.510;2022-08-19T01:14:44;18.30;99.90
7694;DHT22;3889;48.162;11.510;2022-08-19T01:17:13;18.30;99.90
7694;DHT22;3889;48.162;11.510;2022-08-19T01:19:43;18.30;99.90
7694;DHT22;3889;48.162;11.510;2022-08-19T01:22:18;18.30;99.90
7694;DHT22;3889;48.162;11.510;2022-08-19T01:24:58;18.30;99.90
7694;DHT22;3889;48.162;11.510;2022-08-19T01:27:26;18.20;99.90
7694;DHT22;3889;48.162;11.510;2022-08-19T01:30:11;18.20;99.90
7694;DHT22;3889;48.162;11.510;2022-08-19T01:32:39;18.20;99.90
7694;DHT22;3889;48.162;11.510;2022-08-19T01:35:07;18.20;99.90
7694;DHT22;3889;48.162;11.510;2022-08-19T01:37:43;18.20;99.90
7694;DHT22;3889;48.162;11.510;2022-08-19T01:40:12;18.10;99.90
7694;DHT22;3889;48.162;11.510;2022-08-19T01:42:40;18.10;99.90
7694;DHT22;3889;48.162;11.510;2022-08-19T01:45:09;18.10;99.90
7694;DHT22;3889;48.162;11.510;2022-08-19T01:47:38;18.20;99.90
7694;DHT22;3889;48.162;11.510;2022-08-19T01:50:09;18.20;99.90
7694;DHT22;3889;48.162;11.510;2022-08-19T01:52:38;18.30;99.90
7694;DHT22;3889;48.162;11.510;2022-08-19T01:55:09;18.30;99.90
7694;DHT22;3889;48.162;11.510;2022-08-19T01:57:41;18.30;99.90
7694;DHT22;3889;48.162;11.510;2022-08-19T02:00:14;18.30;99.90
7694;DHT22;3889;48.162;11.510;2022-08-19T02:02:42;18.30;99.90
7694;DHT22;3889;48.162;11.510;2022-08-19T02:05:11;18.30;99.90
7694;DHT22;3889;48.162;11.510;2022-08-19T02:07:40;18.30;99.90
7694;DHT22;3889;48.162;11.510;2022-08-19T02:10:11;18.30;99.90
7694;DHT22;3889;48.162;11.510;2022-08-19T02:12:43;18.30;99.90
7694;DHT22;3889;48.162;11.510;2022-08-19T02:15:13;18.30;99.90
7694;DHT22;3889;48.162;11.510;2022-08-19T02:17:42;18.40;99.90
7694;DHT22;3889;48.162;11.510;2022-08-19T02:20:10;18.40;99.90
7694;DHT22;3889;48.162;11.510;2022-08-19T02:22:39;18.50;99.90
7694;DHT22;3889;48.162;11.510;2022-08-19T02:25:09;18.50;99.90
7694;DHT22;3889;48.162;11.510;2022-08-19T02:27:37;18.50;99.90
7694;DHT22;3889;48.162;11.510;2022-08-19T02:30:10;18.40;99.90
7694;DHT22;3889;48.162;11.510;2022-08-19T02:32:40;18.40;99.90
7694;DHT22;3889;48.162;11.510;2022-08-19T02:35:11;18.40;99.90
7694;DHT22;3889;48.162;11.510;2022-08-19T02:37:40;18.40;99.90
7694;DHT22;3889;48.162;11.510;2022-08-19T02:40:26;18.40;99.90
7694;DHT22;3889;48.162;11.510;2022-08-19T02:42:54;18.40;99.90
7694;DHT22;3889;48.162;11.510;2022-08-19T02:45:24;18.40;99.90
7694;DHT22;3889;48.162;11.510;2022-08-19T02:47:51;18.40;99.90
7694;DHT22;3889;48.162;11.510;2022-08-19T02:50:19;18.40;99.90
7694;DHT22;3889;48.162;11.510;2022-08-19T02:52:48;18.40;99.90
7694;DHT22;3889;48.162;11.510;2022-08-19T02:55:16;18.40;99.90
7694;DHT22;3889;48.162;11.510;2022-08-19T02:57:44;18.40;99.90
7694;DHT22;3889;48.162;11.510;2022-08-19T03:00:12;18.40;99.90
7694;DHT22;3889;48.162;11.510;2022-08-19T03:02:42;18.30;99.90
7694;DHT22;3889;48.162;11.510;2022-08-19T03:05:09;18.30;99.90
7694;DHT22;3889;48.162;11.510;2022-08-19T03:07:37;18.30;99.90
7694;DHT22;3889;48.162;11.510;2022-08-19T03:10:06;18.30;99.90
7694;DHT22;3889;48.162;11.510;2022-08-19T03:12:36;18.40;99.90
7694;DHT22;3889;48.162;11.510;2022-08-19T03:15:06;18.30;99.90
7694;DHT22;3889;48.162;11.510;2022-08-19T03:17:35;18.30;99.90
7694;DHT22;3889;48.162;11.510;2022-08-19T03:20:05;18.40;99.90
7694;DHT22;3889;48.162;11.510;2022-08-19T03:22:33;18.30;99.90
7694;DHT22;3889;48.162;11.510;2022-08-19T03:25:01;18.30;99.90
7694;DHT22;3889;48.162;11.510;2022-08-19T03:27:29;18.30;99.90
7694;DHT22;3889;48.162;11.510;2022-08-19T03:30:00;18.30;99.90
7694;DHT22;3889;48.162;11.510;2022-08-19T03:32:28;18.30;99.90
7694;DHT22;3889;48.162;11.510;2022-08-19T03:34:59;18.30;99.90
7694;DHT22;3889;48.162;11.510;2022-08-19T03:37:28;18.30;99.90
7694;DHT22;3889;48.162;11.510;2022-08-19T03:39:56;18.30;99.90
7694;DHT22;3889;48.162;11.510;2022-08-19T03:42:24;18.30;99.90
7694;DHT22;3889;48.162;11.510;2022-08-19T03:45:13;18.30;99.90
7694;DHT22;3889;48.162;11.510;2022-08-19T03:47:41;18.30;99.90
7694;DHT22;3889;48.162;11.510;2022-08-19T03:50:09;18.40;99.90
7694;DHT22;3889;48.162;11.510;2022-08-19T03:52:39;18.40;99.90
7694;DHT22;3889;48.162;11.510;2022-08-19T03:55:13;18.40;99.90
7694;DHT22;3889;48.162;11.510;2022-08-19T03:57:41;18.40;99.90
7694;DHT22;3889;48.162;11.510;2022-08-19T04:00:09;18.40;99.90
7694;DHT22;3889;48.162;11.510;2022-08-19T04:02:40;18.40;99.90
7694;DHT22;3889;48.162;11.510;2022-08-19T04:05:08;18.30;99.90
7694;DHT22;3889;48.162;11.510;2022-08-19T04:07:36;18.40;99.90
7694;DHT22;3889;48.162;11.510;2022-08-19T04:10:06;18.40;99.90
7694;DHT22;3889;48.162;11.510;2022-08-19T04:12:36;18.40;99.90
7694;DHT22;3889;48.162;11.510;2022-08-19T04:15:05;18.40;99.90
7694;DHT22;3889;48.162;11.510;2022-08-19T04:17:33;18.40;99.90
7694;DHT22;3889;48.162;11.510;2022-08-19T04:20:00;18.30;99.90
7694;DHT22;3889;48.162;11.510;2022-08-19T04:22:32;18.30;99.90
7694;DHT22;3889;48.162;11.510;2022-08-19T04:25:00;18.30;99.90
7694;DHT22;3889;48.162;11.510;2022-08-19T04:27:30;18.30;99.90
7694;DHT22;3889;48.162;11.510;2022-08-19T04:29:57;18.30;99.90
7694;DHT22;3889;48.162;11.510;2022-08-19T04:32:25;18.40;99.90
7694;DHT22;3889;48.162;11.510;2022-08-19T04:34:53;18.40;99.90
7694;DHT22;3889;48.162;11.510;2022-08-19T04:37:43;18.40;99.90
7694;DHT22;3889;48.162;11.510;2022-08-19T04:40:11;18.40;99.90
7694;DHT22;3889;48.162;11.510;2022-08-19T04:42:58;18.40;99.90
7694;DHT22;3889;48.162;11.510;2022-08-19T04:45:27;18.50;99.90
7694;DHT22;3889;48.162;11.510;2022-08-19T04:48:05;18.50;99.90
7694;DHT22;3889;48.162;11.510;2022-08-19T04:50:54;18.50;99.90
7694;DHT22;3889;48.162;11.510;2022-08-19T04:53:24;18.40;99.90
7694;DHT22;3889;48.162;11.510;2022-08-19T04:55:55;18.40;99.90
7694;DHT22;3889;48.162;11.510;2022-08-19T04:58:26;18.40;99.90
7694;DHT22;3889;48.162;11.510;2022-08-19T05:00:55;18.50;99.90
7694;DHT22;3889;48.162;11.510;2022-08-19T05:03:22;18.50;99.90
7694;DHT22;3889;48.162;11.510;2022-08-19T05:05:56;18.50;99.90
7694;DHT22;3889;48.162;11.510;2022-08-19T05:08:24;18.50;99.90
7694;DHT22;3889;48.162;11.510;2022-08-19T05:10:57;18.50;99.90
7694;DHT22;3889;48.162;11.510;2022-08-19T05:13:26;18.50;99.90
7694;DHT22;3889;48.162;11.510;2022-08-19T05:15:55;18.50;99.90
7694;DHT22;3889;48.162;11.510;2022-08-19T05:18:25;18.60;99.90
7694;DHT22;3889;48.162;11.510;2022-08-19T05:21:12;18.60;99.90
7694;DHT22;3889;48.162;11.510;2022-08-19T05:23:58;18.60;99.90
7694;DHT22;3889;48.162;11.510;2022-08-19T05:26:26;18.60;99.90
7694;DHT22;3889;48.162;11.510;2022-08-19T05:28:56;18.60;99.90
7694;DHT22;3889;48.162;11.510;2022-08-19T05:31:24;18.60;99.90
7694;DHT22;3889;48.162;11.510;2022-08-19T05:33:52;18.60;99.90
7694;DHT22;3889;48.162;11.510;2022-08-19T05:36:20;18.60;99.90
7694;DHT22;3889;48.162;11.510;2022-08-19T05:38:47;18.60;99.90
7694;DHT22;3889;48.162;11.510;2022-08-19T05:41:16;18.60;99.90
7694;DHT22;3889;48.162;11.510;2022-08-19T05:43:44;18.60;99.90
7694;DHT22;3889;48.162;11.510;2022-08-19T05:46:18;18.60;99.90
7694;DHT22;3889;48.162;11.510;2022-08-19T05:48:54;18.70;99.90
7694;DHT22;3889;48.162;11.510;2022-08-19T05:51:23;18.70;99.90
7694;DHT22;3889;48.162;11.510;2022-08-19T05:53:55;18.70;99.90
7694;DHT22;3889;48.162;11.510;2022-08-19T05:56:23;18.70;99.90
7694;DHT22;3889;48.162;11.510;2022-08-19T05:58:51;18.70;99.90
7694;DHT22;3889;48.162;11.510;2022-08-19T06:01:22;18.70;99.90
7694;DHT22;3889;48.162;11.510;2022-08-19T06:03:50;18.70;99.90
7694;DHT22;3889;48.162;11.510;2022-08-19T06:06:18;18.70;99.90
7694;DHT22;3889;48.162;11.510;2022-08-19T06:08:46;18.70;99.90
7694;DHT22;3889;48.162;11.510;2022-08-19T06:11:19;18.70;99.90
7694;DHT22;3889;48.162;11.510;2022-08-19T06:13:50;18.70;99.90
7694;DHT22;3889;48.162;11.510;2022-08-19T06:16:28;18.70;99.90
7694;DHT22;3889;48.162;11.510;2022-08-19T06:19:00;18.70;99.90
7694;DHT22;3889;48.162;11.510;2022-08-19T06:21:29;18.80;99.90
7694;DHT22;3889;48.162;11.510;2022-08-19T06:23:58;18.80;99.90
7694;DHT22;3889;48.162;11.510;2022-08-19T06:26:27;18.80;99.90
7694;DHT22;3889;48.162;11.510;2022-08-19T06:28:55;18.70;99.90
7694;DHT22;3889;48.162;11.510;2022-08-19T06:31:25;18.70;99.90
7694;DHT22;3889;48.162;11.510;2022-08-19T06:33:54;18.70;99.90
7694;DHT22;3889;48.162;11.510;2022-08-19T06:36:24;18.70;99.90
7694;DHT22;3889;48.162;11.510;2022-08-19T06:38:57;18.70;99.90
7694;DHT22;3889;48.162;11.510;2022-08-19T06:41:25;18.70;99.90
7694;DHT22;3889;48.162;11.510;2022-08-19T06:43:54;18.70;99.90
7694;DHT22;3889;48.162;11.510;2022-08-19T06:46:22;18.70;99.90
7694;DHT22;3889;48.162;11.510;2022-08-19T06:48:50;18.70;99.90
7694;DHT22;3889;48.162;11.510;2022-08-19T06:51:22;18.70;99.90
7694;DHT22;3889;48.162;11.510;2022-08-19T06:53:52;18.70;99.90
7694;DHT22;3889;48.162;11.510;2022-08-19T06:56:23;18.80;99.90
7694;DHT22;3889;48.162;11.510;2022-08-19T06:58:57;18.70;99.90
7694;DHT22;3889;48.162;11.510;2022-08-19T07:01:25;18.70;99.90
7694;DHT22;3889;48.162;11.510;2022-08-19T07:03:53;18.80;99.90
7694;DHT22;3889;48.162;11.510;2022-08-19T07:06:22;18.90;99.90
7694;DHT22;3889;48.162;11.510;2022-08-19T07:09:12;18.90;99.90
7694;DHT22;3889;48.162;11.510;2022-08-19T07:11:45;19.00;99.90
7694;DHT22;3889;48.162;11.510;2022-08-19T07:14:13;19.00;99.90
7694;DHT22;3889;48.162;11.510;2022-08-19T07:16:46;19.00;99.90
7694;DHT22;3889;48.162;11.510;2022-08-19T07:19:14;19.00;99.90
7694;DHT22;3889;48.162;11.510;2022-08-19T07:21:47;19.00;99.90
7694;DHT22;3889;48.162;11.510;2022-08-19T07:24:17;19.10;99.90
7694;DHT22;3889;48.162;11.510;2022-08-19T07:26:45;19.20;99.90
7694;DHT22;3889;48.162;11.510;2022-08-19T07:29:18;19.30;99.90
7694;DHT22;3889;48.162;11.510;2022-08-19T07:31:55;19.40;99.90
7694;DHT22;3889;48.162;11.510;2022-08-19T07:34:28;19.40;99.90
7694;DHT22;3889;48.162;11.510;2022-08-19T07:36:57;19.50;99.90
7694;DHT22;3889;48.162;11.510;2022-08-19T07:39:27;19.30;99.90
7694;DHT22;3889;48.162;11.510;2022-08-19T07:41:56;19.40;99.90
7694;DHT22;3889;48.162;11.510;2022-08-19T07:44:24;19.50;99.90
7694;DHT22;3889;48.162;11.510;2022-08-19T07:46:55;19.70;99.90
7694;DHT22;3889;48.162;11.510;2022-08-19T07:49:23;19.60;99.90
7694;DHT22;3889;48.162;11.510;2022-08-19T07:51:53;19.50;99.90
7694;DHT22;3889;48.162;11.510;2022-08-19T07:54:24;19.50;99.90
7694;DHT22;3889;48.162;11.510;2022-08-19T07:56:52;19.50;99.90
7694;DHT22;3889;48.162;11.510;2022-08-19T07:59:21;19.50;99.90
7694;DHT22;3889;48.162;11.510;2022-08-19T08:01:50;19.40;99.90
7694;DHT22;3889;48.162;11.510;2022-08-19T08:04:19;19.50;99.90
7694;DHT22;3889;48.162;11.510;2022-08-19T08:07:05;19.50;99.90
7694;DHT22;3889;48.162;11.510;2022-08-19T08:09:59;19.50;99.90
7694;DHT22;3889;48.162;11.510;2022-08-19T08:12:31;19.50;99.90
7694;DHT22;3889;48.162;11.510;2022-08-19T08:15:04;19.50;99.90
7694;DHT22;3889;48.162;11.510;2022-08-19T08:17:38;19.50;99.90
7694;DHT22;3889;48.162;11.510;2022-08-19T08:20:18;19.40;99.90
7694;DHT22;3889;48.162;11.510;2022-08-19T08:22:47;19.40;99.90
7694;DHT22;3889;48.162;11.510;2022-08-19T08:25:35;19.40;99.90
7694;DHT22;3889;48.162;11.510;2022-08-19T08:28:04;19.40;99.90
7694;DHT22;3889;48.162;11.510;2022-08-19T08:30:32;19.30;99.90
7694;DHT22;3889;48.162;11.510;2022-08-19T08:33:02;19.30;99.90
7694;DHT22;3889;48.162;11.510;2022-08-19T08:35:30;19.20;99.90
7694;DHT22;3889;48.162;11.510;2022-08-19T08:37:59;19.20;99.90
7694;DHT22;3889;48.162;11.510;2022-08-19T08:40:29;19.20;99.90
7694;DHT22;3889;48.162;11.510;2022-08-19T08:43:06;19.20;99.90
7694;DHT22;3889;48.162;11.510;2022-08-19T08:45:43;19.20;99.90
7694;DHT22;3889;48.162;11.510;2022-08-19T08:48:22;19.20;99.90
7694;DHT22;3889;48.162;11.510;2022-08-19T08:50:54;19.20;99.90
7694;DHT22;3889;48.162;11.510;2022-08-19T08:53:24;19.10;99.90
7694;DHT22;3889;48.162;11.510;2022-08-19T08:56:02;19.20;99.90
7694;DHT22;3889;48.162;11.510;2022-08-19T08:58:42;19.10;99.90
7694;DHT22;3889;48.162;11.510;2022-08-19T09:01:20;19.10;99.90
7694;DHT22;3889;48.162;11.510;2022-08-19T09:03:49;19.10;99.90
7694;DHT22;3889;48.162;11.510;2022-08-19T09:06:26;19.20;99.90
7694;DHT22;3889;48.162;11.510;2022-08-19T09:09:03;19.20;99.90
7694;DHT22;3889;48.162;11.510;2022-08-19T09:11:47;19.10;99.90
7694;DHT22;3889;48.162;11.510;2022-08-19T09:14:30;19.20;99.90
7694;DHT22;3889;48.162;11.510;2022-08-19T09:17:17;19.20;99.90
7694;DHT22;3889;48.162;11.510;2022-08-19T09:19:51;19.30;99.90
7694;DHT22;3889;48.162;11.510;2022-08-19T09:22:20;19.30;99.90
7694;DHT22;3889;48.162;11.510;2022-08-19T09:24:52;19.40;99.90
7694;DHT22;3889;48.162;11.510;2022-08-19T09:27:21;19.40;99.90
7694;DHT22;3889;48.162;11.510;2022-08-19T09:30:12;19.40;99.90
7694;DHT22;3889;48.162;11.510;2022-08-19T09:32:41;19.30;99.90
7694;DHT22;3889;48.162;11.510;2022-08-19T09:35:11;19.30;99.90
7694;DHT22;3889;48.162;11.510;2022-08-19T09:37:39;19.40;99.90
7694;DHT22;3889;48.162;11.510;2022-08-19T09:40:09;19.50;99.90
7694;DHT22;3889;48.162;11.510;2022-08-19T09:42:38;19.50;99.90
7694;DHT22;3889;48.162;11.510;2022-08-19T09:45:19;19.50;99.90
7694;DHT22;3889;48.162;11.510;2022-08-19T09:47:49;19.40;99.90
7694;DHT22;3889;48.162;11.510;2022-08-19T09:50:23;19.50;99.90
7694;DHT22;3889;48.162;11.510;2022-08-19T09:52:51;19.40;99.90
7694;DHT22;3889;48.162;11.510;2022-08-19T09:55:24;19.40;99.90
7694;DHT22;3889;48.162;11.510;2022-08-19T09:57:59;19.50;99.90
7694;DHT22;3889;48.162;11.510;2022-08-19T10:00:29;19.50;99.90
7694;DHT22;3889;48.162;11.510;2022-08-19T10:02:57;19.40;99.90
7694;DHT22;3889;48.162;11.510;2022-08-19T10:05:27;19.60;99.90
7694;DHT22;3889;48.162;11.510;2022-08-19T10:08:15;19.50;99.90
7694;DHT22;3889;48.162;11.510;2022-08-19T10:10:46;19.60;99.90
7694;DHT22;3889;48.162;11.510;2022-08-19T10:13:17;19.70;99.90
7694;DHT22;3889;48.162;11.510;2022-08-19T10:15:49;19.70;99.90
7694;DHT22;3889;48.162;11.510;2022-08-19T10:18:19;19.80;99.90
7694;DHT22;3889;48.162;11.510;2022-08-19T10:20:49;19.70;99.90
7694;DHT22;3889;48.162;11.510;2022-08-19T10:23:19;20.00;99.90
7694;DHT22;3889;48.162;11.510;2022-08-19T10:25:47;20.00;99.90
7694;DHT22;3889;48.162;11.510;2022-08-19T10:28:16;20.20;99.90
7694;DHT22;3889;48.162;11.510;2022-08-19T10:30:45;20.40;99.90
7694;DHT22;3889;48.162;11.510;2022-08-19T10:33:15;20.70;99.90
7694;DHT22;3889;48.162;11.510;2022-08-19T10:36:06;21.00;99.90
7694;DHT22;3889;48.162;11.510;2022-08-19T10:38:34;21.20;99.90
7694;DHT22;3889;48.162;11.510;2022-08-19T10:41:10;21.40;99.90
7694;DHT22;3889;48.162;11.510;2022-08-19T10:43:38;21.40;99.90
7694;DHT22;3889;48.162;11.510;2022-08-19T10:46:06;21.50;99.90
7694;DHT22;3889;48.162;11.510;2022-08-19T10:48:43;21.80;99.90
7694;DHT22;3889;48.162;11.510;2022-08-19T10:51:12;22.10;99.90
7694;DHT22;3889;48.162;11.510;2022-08-19T10:53:58;22.20;99.90
7694;DHT22;3889;48.162;11.510;2022-08-19T10:56:27;22.00;99.90
7694;DHT22;3889;48.162;11.510;2022-08-19T10:59:13;21.90;99.90
7694;DHT22;3889;48.162;11.510;2022-08-19T11:01:43;21.70;99.90
7694;DHT22;3889;48.162;11.510;2022-08-19T11:04:14;21.70;99.90
7694;DHT22;3889;48.162;11.510;2022-08-19T11:06:44;21.60;99.90
7694;DHT22;3889;48.162;11.510;2022-08-19T11:09:14;21.40;99.90
7694;DHT22;3889;48.162;11.510;2022-08-19T11:11:43;21.30;99.90
7694;DHT22;3889;48.162;11.510;2022-08-19T11:14:13;21.30;99.90
7694;DHT22;3889;48.162;11.510;2022-08-19T11:16:42;21.30;99.90
7694;DHT22;3889;48.162;11.510;2022-08-19T11:19:11;21.30;99.90
7694;DHT22;3889;48.162;11.510;2022-08-19T11:21:43;21.20;99.90
7694;DHT22;3889;48.162;11.510;2022-08-19T11:24:17;21.30;99.90
7694;DHT22;3889;48.162;11.510;2022-08-19T11:26:48;21.30;99.90
7694;DHT22;3889;48.162;11.510;2022-08-19T11:29:20;21.40;99.90
7694;DHT22;3889;48.162;11.510;2022-08-19T11:31:49;21.30;99.90
7694;DHT22;3889;48.162;11.510;2022-08-19T11:34:20;21.30;99.90
7694;DHT22;3889;48.162;11.510;2022-08-19T11:36:50;21.40;99.90
7694;DHT22;3889;48.162;11.510;2022-08-19T11:39:21;21.60;99.90
7694;DHT22;3889;48.162;11.510;2022-08-19T11:41:50;21.80;99.90
7694;DHT22;3889;48.162;11.510;2022-08-19T11:44:18;21.90;99.90
7694;DHT22;3889;48.162;11.510;2022-08-19T11:46:46;21.80;99.90
7694;DHT22;3889;48.162;11.510;2022-08-19T11:49:16;21.90;99.90
7694;DHT22;3889;48.162;11.510;2022-08-19T11:51:50;21.60;99.90
7694;DHT22;3889;48.162;11.510;2022-08-19T11:54:21;21.50;99.90
7694;DHT22;3889;48.162;11.510;2022-08-19T11:56:49;21.50;99.90
7694;DHT22;3889;48.162;11.510;2022-08-19T11:59:17;21.50;99.90
7694;DHT22;3889;48.162;11.510;2022-08-19T12:01:45;21.20;99.90
7694;DHT22;3889;48.162;11.510;2022-08-19T12:04:14;20.90;99.90
7694;DHT22;3889;48.162;11.510;2022-08-19T12:06:44;20.70;99.90
7694;DHT22;3889;48.162;11.510;2022-08-19T12:09:13;20.70;99.90
7694;DHT22;3889;48.162;11.510;2022-08-19T12:11:42;20.60;99.90
7694;DHT22;3889;48.162;11.510;2022-08-19T12:14:11;20.60;99.90
7694;DHT22;3889;48.162;11.510;2022-08-19T12:16:40;20.50;99.90
7694;DHT22;3889;48.162;11.510;2022-08-19T12:19:17;20.60;99.90
7694;DHT22;3889;48.162;11.510;2022-08-19T12:21:48;20.60;99.90
7694;DHT22;3889;48.162;11.510;2022-08-19T12:24:18;20.60;99.90
7694;DHT22;3889;48.162;11.510;2022-08-19T12:26:50;20.80;99.90
7694;DHT22;3889;48.162;11.510;2022-08-19T12:29:20;21.00;99.90
7694;DHT22;3889;48.162;11.510;2022-08-19T12:31:49;21.10;99.90
7694;DHT22;3889;48.162;11.510;2022-08-19T12:34:17;21.10;99.90
7694;DHT22;3889;48.162;11.510;2022-08-19T12:36:46;21.30;99.90
7694;DHT22;3889;48.162;11.510;2022-08-19T12:39:15;21.30;99.90
7694;DHT22;3889;48.162;11.510;2022-08-19T12:41:44;21.50;99.90
7694;DHT22;3889;48.162;11.510;2022-08-19T12:44:21;21.50;99.90
7694;DHT22;3889;48.162;11.510;2022-08-19T12:46:55;21.80;99.90
7694;DHT22;3889;48.162;11.510;2022-08-19T12:49:23;21.80;99.90
7694;DHT22;3889;48.162;11.510;2022-08-19T12:52:12;22.10;99.90
7694;DHT22;3889;48.162;11.510;2022-08-19T12:54:48;22.50;99.90
7694;DHT22;3889;48.162;11.510;2022-08-19T12:57:22;22.90;99.90
7694;DHT22;3889;48.162;11.510;2022-08-19T12:59:59;23.30;99.90
7694;DHT22;3889;48.162;11.510;2022-08-19T13:02:30;23.00;99.90
7694;DHT22;3889;48.162;11.510;2022-08-19T13:05:05;23.20;99.90
7694;DHT22;3889;48.162;11.510;2022-08-19T13:07:34;23.20;99.90
7694;DHT22;3889;48.162;11.510;2022-08-19T13:10:03;22.90;99.90
7694;DHT22;3889;48.162;11.510;2022-08-19T13:12:32;22.50;99.90
7694;DHT22;3889;48.162;11.510;2022-08-19T13:15:00;22.40;99.90
7694;DHT22;3889;48.162;11.510;2022-08-19T13:17:36;22.70;99.90
7694;DHT22;3889;48.162;11.510;2022-08-19T13:20:05;23.20;99.90
7694;DHT22;3889;48.162;11.510;2022-08-19T13:22:34;23.10;99.90
7694;DHT22;3889;48.162;11.510;2022-08-19T13:25:03;23.10;99.90
7694;DHT22;3889;48.162;11.510;2022-08-19T13:27:33;23.00;99.90
7694;DHT22;3889;48.162;11.510;2022-08-19T13:30:03;22.70;99.90
7694;DHT22;3889;48.162;11.510;2022-08-19T13:32:49;22.50;99.90
7694;DHT22;3889;48.162;11.510;2022-08-19T13:35:34;22.20;99.90
7694;DHT22;3889;48.162;11.510;2022-08-19T13:38:02;21.90;99.90
7694;DHT22;3889;48.162;11.510;2022-08-19T13:40:38;21.90;99.90
7694;DHT22;3889;48.162;11.510;2022-08-19T13:43:08;21.80;99.90
7694;DHT22;3889;48.162;11.510;2022-08-19T13:45:48;21.90;99.90
7694;DHT22;3889;48.162;11.510;2022-08-19T13:48:16;21.90;99.90
7694;DHT22;3889;48.162;11.510;2022-08-19T13:50:45;21.80;99.90
7694;DHT22;3889;48.162;11.510;2022-08-19T13:53:15;21.70;99.90
7694;DHT22;3889;48.162;11.510;2022-08-19T13:55:44;21.60;99.90
7694;DHT22;3889;48.162;11.510;2022-08-19T13:58:13;21.50;99.90
7694;DHT22;3889;48.162;11.510;2022-08-19T14:00:45;21.50;99.90
7694;DHT22;3889;48.162;11.510;2022-08-19T14:03:16;21.40;99.90
7694;DHT22;3889;48.162;11.510;2022-08-19T14:05:46;21.30;99.90
7694;DHT22;3889;48.162;11.510;2022-08-19T14:08:16;21.40;99.90
7694;DHT22;3889;48.162;11.510;2022-08-19T14:10:46;21.50;99.90
7694;DHT22;3889;48.162;11.510;2022-08-19T14:13:21;21.60;99.90
7694;DHT22;3889;48.162;11.510;2022-08-19T14:15:51;21.70;99.90
7694;DHT22;3889;48.162;11.510;2022-08-19T14:18:19;21.70;99.90
7694;DHT22;3889;48.162;11.510;2022-08-19T14:20:51;21.70;99.90
7694;DHT22;3889;48.162;11.510;2022-08-19T14:23:21;21.80;99.90
7694;DHT22;3889;48.162;11.510;2022-08-19T14:25:49;21.80;99.90
7694;DHT22;3889;48.162;11.510;2022-08-19T14:28:20;21.70;99.90
7694;DHT22;3889;48.162;11.510;2022-08-19T14:30:53;21.70;99.90
7694;DHT22;3889;48.162;11.510;2022-08-19T14:33:22;21.80;99.90
7694;DHT22;3889;48.162;11.510;2022-08-19T14:35:56;21.90;99.90
7694;DHT22;3889;48.162;11.510;2022-08-19T14:38:26;21.90;99.90
7694;DHT22;3889;48.162;11.510;2022-08-19T14:41:09;21.80;99.90
7694;DHT22;3889;48.162;11.510;2022-08-19T14:43:39;21.60;99.90
7694;DHT22;3889;48.162;11.510;2022-08-19T14:46:08;21.30;99.90
7694;DHT22;3889;48.162;11.510;2022-08-19T14:48:37;21.20;99.90
7694;DHT22;3889;48.162;11.510;2022-08-19T14:51:07;21.10;99.90
7694;DHT22;3889;48.162;11.510;2022-08-19T14:53:36;21.00;99.90
7694;DHT22;3889;48.162;11.510;2022-08-19T14:56:08;21.20;99.90
7694;DHT22;3889;48.162;11.510;2022-08-19T14:58:39;21.20;99.90
7694;DHT22;3889;48.162;11.510;2022-08-19T15:01:09;21.10;99.90
7694;DHT22;3889;48.162;11.510;2022-08-19T15:03:39;21.00;99.90
7694;DHT22;3889;48.162;11.510;2022-08-19T15:06:08;20.90;99.90
7694;DHT22;3889;48.162;11.510;2022-08-19T15:08:39;20.90;99.90
7694;DHT22;3889;48.162;11.510;2022-08-19T15:11:09;20.80;99.90
7694;DHT22;3889;48.162;11.510;2022-08-19T15:13:40;20.80;99.90
7694;DHT22;3889;48.162;11.510;2022-08-19T15:16:09;20.80;99.90
7694;DHT22;3889;48.162;11.510;2022-08-19T15:18:44;20.80;99.90
7694;DHT22;3889;48.162;11.510;2022-08-19T15:21:13;20.60;99.90
7694;DHT22;3889;48.162;11.510;2022-08-19T15:23:54;20.50;99.90
7694;DHT22;3889;48.162;11.510;2022-08-19T15:26:23;20.40;99.90
7694;DHT22;3889;48.162;11.510;2022-08-19T15:28:53;20.30;99.90
7694;DHT22;3889;48.162;11.510;2022-08-19T15:31:22;20.00;99.90
7694;DHT22;3889;48.162;11.510;2022-08-19T15:33:55;20.00;99.90
7694;DHT22;3889;48.162;11.510;2022-08-19T15:36:23;19.90;99.90
7694;DHT22;3889;48.162;11.510;2022-08-19T15:38:52;19.80;99.90
7694;DHT22;3889;48.162;11.510;2022-08-19T15:41:23;19.80;99.90
7694;DHT22;3889;48.162;11.510;2022-08-19T15:43:54;19.90;99.90
7694;DHT22;3889;48.162;11.510;2022-08-19T15:46:25;19.90;99.90
7694;DHT22;3889;48.162;11.510;2022-08-19T15:48:55;19.90;99.90
7694;DHT22;3889;48.162;11.510;2022-08-19T15:51:27;20.00;99.90
7694;DHT22;3889;48.162;11.510;2022-08-19T15:53:56;20.10;99.90
7694;DHT22;3889;48.162;11.510;2022-08-19T15:56:24;20.10;99.90
7694;DHT22;3889;48.162;11.510;2022-08-19T15:58:54;20.00;99.90
7694;DHT22;3889;48.162;11.510;2022-08-19T16:01:40;20.20;99.90
7694;DHT22;3889;48.162;11.510;2022-08-19T16:04:26;20.30;99.90
7694;DHT22;3889;48.162;11.510;2022-08-19T16:07:11;20.30;99.90
7694;DHT22;3889;48.162;11.510;2022-08-19T16:09:39;20.30;99.90
7694;DHT22;3889;48.162;11.510;2022-08-19T16:12:07;20.20;99.90